New Lisbon, WI

5:04 PM CDT on May 25, 2015 (GMT -0500)
KWINEWLI2 | | Change Station
CLOSE
Current Station
Personal Weather Station
Location: New Lisbon, WI
Elevation: 891 ft
Nearby Weather Stations
Active Advisory: Special Statement

Elev 891 ft 43.87 °N, 90.17 °W | Updated 6 seconds ago

Clear
Clear
78.6 °F
Feels Like 80 °F
N
15.0
Wind Variable Wind from SW
Gusts 15.0 mph

Today
High -- | Low -- °F
--% Chance of Precip.
Yesterday
High -- | Low -- °F
Precip. -- in
5:25 AM 8:29 PM
First Quarter, 52% visible
Pressure 29.77 in
Visibility 10.0 miles
Clouds Clear
Heat Index 80 °F
Dew Point 61 °F
Humidity 55%
Rainfall 0.00 in
Snow Depth Not available.
UV 0.0 out of 12
Pollen .90 out of 12
Air Quality Not available.
Flu Activity Sporadic
METAR KVOK 252158Z AUTO 22008KT 10SM CLR 25/20 A2977 RMK AO2 RAB19E28 SLP080 P0000 T02490199

More Conditions Fewer Conditions

Pressure 29.77 in
Visibility 10.0 miles
Clouds Clear
Heat Index 80 °F
Dew Point 61 °F
Humidity 55%
Rainfall 0.00 in
Snow Depth Not available.
UV 0.0 out of 12
Pollen .90 out of 12
Air Quality Not available.
Flu Activity Sporadic
METAR KVOK 252158Z AUTO 22008KT 10SM CLR 25/20 A2977 RMK AO2 RAB19E28 SLP080 P0000 T02490199

More Conditions Fewer Conditions

10-Day Weather Forecast

Almanac

Astronomy

May. 25, 2015 Rise Set
Actual Time
Civil Twilight
Nautical Twilight
Astronomical Twilight
Moon
Length of Visible Light
Length of Day
Tomorrow will be .
, % of the Moon is Illuminated

Today's Extremes

State Highs State Lows

Community

WunderPhotos

Upload Photos

1,824,146 photos uploaded!

WunderBlogs® & News

Nearby

Air Quality

  Air Quality AQ Index Pollutant
Not available.

Snow Depth

Station Depth Elevation

Earthquake Activity

City Distance Mag. Time & Date
Minimum magnitude displayed is 2.5.

Coastal Water Temperatures

Place Temperature

Stations

Nearby Weather Stations

Station Location Temp. Windchill Dew Point Humidity Wind Precip. Elev Updated Type
                   
Special Statement
Statement as of 4:30 PM CDT on May 25, 2015

... Showers and storms moving northeast across the area...

Scattered showers and thunderstorms was lifting northeast across
the late this afternoon. Most of the showers and storms were
located in a band about 10 miles either side of Interstate 90 and
were moving northeast at about 30 mph.

Any stronger storms will be capable of producing gusty winds of
30 to 40 mph... hail up to one-half inch diameter... brief heavy
downpours along with dangerous cloud to ground lightning strikes.

If one of these storms approaches your locations... moving indoors
until it passes. Be prepared for poor visibilities if you are
driving and run into one of the downpours.

Rrs